Aérodrome :
LOGIN :

S'inscrire | Disclaimer

   EN    FR    IT 

 










Légende :    VFR   VFR Marginal   IFR   IFR Intensif   IFR Très Intensif
Visi : 
Plafond : 
>= 8 km
>= 3000ft
5 à 8 km
1000 à 3000 ft
1500m à 5 km
500 à 1000 ft
800 à 1500m
200 à 500 ft
< 800m
< 200 ft
Symboles :   Orages  Brouillard  Fortes neiges  Fortes précipitations  Vent > 20 kt
SIGMETs :   Divers  Orages  Givrage  Turbulence  Onde Orograph.  Cendres Volcan.







- Altitude de l'aérodrome : 147 ft
- Code IATA : DUS


EDDL - Düsseldorf Int.

DERNIER METAR :
  • 230720Z 16016KT 130V190 CAVOK 12/05 Q1000 NOSIG

METARs EXPIRÉS :
  • 230650Z 16018KT CAVOK 12/05 Q1000 NOSIG
  • 230620Z 16017G27KT 130V190 CAVOK 12/05 Q1000 NOSIG
  • 230550Z 16017KT CAVOK 12/05 Q1000 NOSIG
  • 230520Z 16015KT CAVOK 11/05 Q1000 NOSIG
  • 230450Z 16017KT CAVOK 11/04 Q1000 NOSIG

TAF TAF EDDL
Valide du 23 à 06h jusqu'au 24 à 12h UTC


230500Z 2306/2412 17020G30KT 9999 SCT035
TEMPO 2307/2313 19025G35KT
BECMG 2313/2316 20013KT
PROB30
TEMPO 2314/2317 SHRA BKN020TCU
BECMG 2318/2321 21008KT
BECMG 2403/2406 17013KT
TEMPO 2406/2409 RA
BECMG 2408/2411 24008KT
Pas de NOTAMs connus pour ce terrain.
1 SIGMET publié pour la FIR Langen (EDGG) :
 
Turbulence forte
EDGG SIGMET 1 VALID 230645/231000 EDZF
EDGG LANGEN FIR SEV TURB FCST APRX 80NM WID LINE BTN N4912 E00644 - N5116 E01021 2000FT/5000FT STNR NC=



MET'MAP, la Météo Aéronautique d'un coup d'oeil ! - Copyright ORBIFLY Décembre 2007 - Disclaimer

ORBIFLY MET'MAP TEAM :

Programmation & Développement : Alexandra Zaïnal
Conception & Développement : Baudouin d'Aumeries
Co-Programmation & Développement : Marc-Olivier Méhu
Soutien technique & logistique : Manuel Goepfert

Contact : metmap@orbifly.com




SOURCES & CREDITS :

   NOAA